sensor_id;sensor_type;location;lat;lon;timestamp;P1;durP1;ratioP1;P2;durP2;ratioP2
24859;SDS011;12936;52.006;4.350;2023-10-08T00:01:16;19.95;;;5.10;;
24859;SDS011;12936;52.006;4.350;2023-10-08T00:03:46;27.27;;;5.75;;
24859;SDS011;12936;52.006;4.350;2023-10-08T00:06:17;13.68;;;5.25;;
24859;SDS011;12936;52.006;4.350;2023-10-08T00:08:47;20.33;;;6.28;;
24859;SDS011;12936;52.006;4.350;2023-10-08T00:11:17;18.08;;;6.35;;
24859;SDS011;12936;52.006;4.350;2023-10-08T00:13:49;15.32;;;5.95;;
24859;SDS011;12936;52.006;4.350;2023-10-08T00:16:22;20.05;;;5.60;;
24859;SDS011;12936;52.006;4.350;2023-10-08T00:18:50;22.42;;;5.97;;
24859;SDS011;12936;52.006;4.350;2023-10-08T00:21:19;25.25;;;6.28;;
24859;SDS011;12936;52.006;4.350;2023-10-08T00:23:53;18.45;;;5.70;;
24859;SDS011;12936;52.006;4.350;2023-10-08T00:26:27;22.17;;;5.80;;
24859;SDS011;12936;52.006;4.350;2023-10-08T00:28:58;13.98;;;5.72;;
24859;SDS011;12936;52.006;4.350;2023-10-08T00:31:33;15.10;;;5.50;;
24859;SDS011;12936;52.006;4.350;2023-10-08T00:34:07;22.45;;;6.10;;
24859;SDS011;12936;52.006;4.350;2023-10-08T00:36:39;17.75;;;5.82;;
24859;SDS011;12936;52.006;4.350;2023-10-08T00:39:09;17.90;;;6.30;;
24859;SDS011;12936;52.006;4.350;2023-10-08T00:41:41;17.05;;;5.28;;
24859;SDS011;12936;52.006;4.350;2023-10-08T00:44:11;23.27;;;6.25;;
24859;SDS011;12936;52.006;4.350;2023-10-08T00:46:49;17.02;;;5.97;;
24859;SDS011;12936;52.006;4.350;2023-10-08T00:49:19;20.63;;;6.35;;
24859;SDS011;12936;52.006;4.350;2023-10-08T00:52:04;18.58;;;5.82;;
24859;SDS011;12936;52.006;4.350;2023-10-08T00:54:52;26.90;;;6.38;;
24859;SDS011;12936;52.006;4.350;2023-10-08T00:57:34;19.58;;;5.47;;
24859;SDS011;12936;52.006;4.350;2023-10-08T01:00:04;18.58;;;6.00;;
24859;SDS011;12936;52.006;4.350;2023-10-08T01:02:42;20.33;;;5.80;;
24859;SDS011;12936;52.006;4.350;2023-10-08T01:05:13;15.82;;;6.65;;
24859;SDS011;12936;52.006;4.350;2023-10-08T01:07:45;22.45;;;5.85;;
24859;SDS011;12936;52.006;4.350;2023-10-08T01:10:17;16.77;;;5.78;;
24859;SDS011;12936;52.006;4.350;2023-10-08T01:12:48;20.95;;;6.72;;
24859;SDS011;12936;52.006;4.350;2023-10-08T01:15:30;20.50;;;6.18;;
24859;SDS011;12936;52.006;4.350;2023-10-08T01:18:02;18.33;;;5.75;;
24859;SDS011;12936;52.006;4.350;2023-10-08T01:20:35;19.90;;;6.20;;
24859;SDS011;12936;52.006;4.350;2023-10-08T01:23:06;22.60;;;5.75;;
24859;SDS011;12936;52.006;4.350;2023-10-08T01:25:39;19.63;;;6.70;;
24859;SDS011;12936;52.006;4.350;2023-10-08T01:28:08;16.65;;;6.03;;
24859;SDS011;12936;52.006;4.350;2023-10-08T01:30:41;25.35;;;6.38;;
24859;SDS011;12936;52.006;4.350;2023-10-08T01:33:13;20.10;;;5.82;;
24859;SDS011;12936;52.006;4.350;2023-10-08T01:35:42;19.70;;;5.85;;
24859;SDS011;12936;52.006;4.350;2023-10-08T01:38:12;18.05;;;6.47;;
24859;SDS011;12936;52.006;4.350;2023-10-08T01:40:40;21.80;;;6.57;;
24859;SDS011;12936;52.006;4.350;2023-10-08T01:43:09;22.05;;;6.72;;
24859;SDS011;12936;52.006;4.350;2023-10-08T01:45:40;20.30;;;6.90;;
24859;SDS011;12936;52.006;4.350;2023-10-08T01:48:09;17.88;;;6.47;;
24859;SDS011;12936;52.006;4.350;2023-10-08T01:50:37;16.73;;;6.50;;
24859;SDS011;12936;52.006;4.350;2023-10-08T01:53:06;21.35;;;6.30;;
24859;SDS011;12936;52.006;4.350;2023-10-08T01:55:37;24.27;;;6.55;;
24859;SDS011;12936;52.006;4.350;2023-10-08T01:58:16;20.40;;;7.05;;
24859;SDS011;12936;52.006;4.350;2023-10-08T02:00:47;22.73;;;6.45;;
24859;SDS011;12936;52.006;4.350;2023-10-08T02:03:18;20.58;;;6.47;;
24859;SDS011;12936;52.006;4.350;2023-10-08T02:05:50;20.55;;;5.88;;
24859;SDS011;12936;52.006;4.350;2023-10-08T02:08:20;15.43;;;5.93;;
24859;SDS011;12936;52.006;4.350;2023-10-08T02:10:49;22.15;;;6.25;;
24859;SDS011;12936;52.006;4.350;2023-10-08T02:13:19;19.25;;;6.30;;
24859;SDS011;12936;52.006;4.350;2023-10-08T02:15:48;18.65;;;6.78;;
24859;SDS011;12936;52.006;4.350;2023-10-08T02:18:18;16.08;;;6.00;;
24859;SDS011;12936;52.006;4.350;2023-10-08T02:20:46;21.98;;;6.18;;
24859;SDS011;12936;52.006;4.350;2023-10-08T02:23:15;26.38;;;6.70;;
24859;SDS011;12936;52.006;4.350;2023-10-08T02:25:44;16.83;;;7.05;;
24859;SDS011;12936;52.006;4.350;2023-10-08T02:28:16;21.70;;;5.85;;
24859;SDS011;12936;52.006;4.350;2023-10-08T02:30:46;17.58;;;5.85;;
24859;SDS011;12936;52.006;4.350;2023-10-08T02:33:14;24.27;;;5.88;;
24859;SDS011;12936;52.006;4.350;2023-10-08T02:35:44;21.67;;;6.35;;
24859;SDS011;12936;52.006;4.350;2023-10-08T02:38:14;19.17;;;6.15;;
24859;SDS011;12936;52.006;4.350;2023-10-08T02:40:44;23.08;;;5.97;;
24859;SDS011;12936;52.006;4.350;2023-10-08T02:43:16;16.35;;;5.85;;
24859;SDS011;12936;52.006;4.350;2023-10-08T02:45:44;14.57;;;5.68;;
24859;SDS011;12936;52.006;4.350;2023-10-08T02:48:15;20.52;;;6.25;;
24859;SDS011;12936;52.006;4.350;2023-10-08T02:50:45;15.80;;;5.63;;
24859;SDS011;12936;52.006;4.350;2023-10-08T02:53:13;15.02;;;5.70;;
24859;SDS011;12936;52.006;4.350;2023-10-08T02:55:44;18.38;;;5.70;;
24859;SDS011;12936;52.006;4.350;2023-10-08T02:58:14;16.50;;;6.25;;
24859;SDS011;12936;52.006;4.350;2023-10-08T03:00:46;13.43;;;5.40;;
24859;SDS011;12936;52.006;4.350;2023-10-08T03:03:15;16.08;;;5.60;;
24859;SDS011;12936;52.006;4.350;2023-10-08T03:05:46;16.80;;;7.00;;
24859;SDS011;12936;52.006;4.350;2023-10-08T03:08:15;20.23;;;5.82;;
24859;SDS011;12936;52.006;4.350;2023-10-08T03:10:47;14.55;;;6.07;;
24859;SDS011;12936;52.006;4.350;2023-10-08T03:13:23;17.60;;;6.15;;
24859;SDS011;12936;52.006;4.350;2023-10-08T03:15:52;19.17;;;6.63;;
24859;SDS011;12936;52.006;4.350;2023-10-08T03:18:35;13.50;;;6.15;;
24859;SDS011;12936;52.006;4.350;2023-10-08T03:21:09;17.73;;;7.20;;
24859;SDS011;12936;52.006;4.350;2023-10-08T03:23:50;21.17;;;6.43;;
24859;SDS011;12936;52.006;4.350;2023-10-08T03:26:24;16.67;;;6.00;;
24859;SDS011;12936;52.006;4.350;2023-10-08T03:29:04;15.52;;;5.43;;
24859;SDS011;12936;52.006;4.350;2023-10-08T03:31:35;16.80;;;6.68;;
24859;SDS011;12936;52.006;4.350;2023-10-08T03:34:17;16.00;;;6.32;;
24859;SDS011;12936;52.006;4.350;2023-10-08T03:36:46;20.17;;;6.18;;
24859;SDS011;12936;52.006;4.350;2023-10-08T03:39:16;17.88;;;6.13;;
24859;SDS011;12936;52.006;4.350;2023-10-08T03:41:46;16.15;;;6.18;;
24859;SDS011;12936;52.006;4.350;2023-10-08T03:44:27;13.90;;;5.97;;
24859;SDS011;12936;52.006;4.350;2023-10-08T03:46:56;16.98;;;6.25;;
24859;SDS011;12936;52.006;4.350;2023-10-08T03:49:24;17.48;;;6.50;;
24859;SDS011;12936;52.006;4.350;2023-10-08T03:51:53;15.48;;;5.95;;
24859;SDS011;12936;52.006;4.350;2023-10-08T03:54:23;12.38;;;5.90;;
24859;SDS011;12936;52.006;4.350;2023-10-08T03:57:01;16.63;;;6.32;;
24859;SDS011;12936;52.006;4.350;2023-10-08T03:59:34;14.77;;;5.90;;
24859;SDS011;12936;52.006;4.350;2023-10-08T04:02:10;16.80;;;6.40;;
24859;SDS011;12936;52.006;4.350;2023-10-08T04:04:48;16.95;;;6.55;;
24859;SDS011;12936;52.006;4.350;2023-10-08T04:07:18;22.52;;;6.50;;
24859;SDS011;12936;52.006;4.350;2023-10-08T04:10:06;13.02;;;5.68;;
24859;SDS011;12936;52.006;4.350;2023-10-08T04:13:05;14.65;;;6.63;;
24859;SDS011;12936;52.006;4.350;2023-10-08T04:15:37;21.35;;;6.65;;
24859;SDS011;12936;52.006;4.350;2023-10-08T04:18:08;22.00;;;6.75;;
24859;SDS011;12936;52.006;4.350;2023-10-08T04:20:37;22.00;;;8.13;;
24859;SDS011;12936;52.006;4.350;2023-10-08T04:23:06;23.75;;;7.00;;
24859;SDS011;12936;52.006;4.350;2023-10-08T04:25:48;23.17;;;6.88;;
24859;SDS011;12936;52.006;4.350;2023-10-08T04:28:21;28.70;;;7.45;;
24859;SDS011;12936;52.006;4.350;2023-10-08T04:30:56;20.65;;;7.40;;
24859;SDS011;12936;52.006;4.350;2023-10-08T04:33:27;20.75;;;6.80;;
24859;SDS011;12936;52.006;4.350;2023-10-08T04:36:00;26.67;;;7.07;;
24859;SDS011;12936;52.006;4.350;2023-10-08T04:38:29;23.75;;;6.80;;
24859;SDS011;12936;52.006;4.350;2023-10-08T04:41:03;21.58;;;7.10;;
24859;SDS011;12936;52.006;4.350;2023-10-08T04:43:35;17.90;;;6.55;;
24859;SDS011;12936;52.006;4.350;2023-10-08T04:46:06;25.90;;;7.00;;
24859;SDS011;12936;52.006;4.350;2023-10-08T04:48:46;17.55;;;6.50;;
24859;SDS011;12936;52.006;4.350;2023-10-08T04:51:16;23.58;;;6.75;;
24859;SDS011;12936;52.006;4.350;2023-10-08T04:53:44;16.40;;;6.78;;
24859;SDS011;12936;52.006;4.350;2023-10-08T04:56:14;18.75;;;6.32;;
24859;SDS011;12936;52.006;4.350;2023-10-08T04:58:43;20.33;;;6.47;;
24859;SDS011;12936;52.006;4.350;2023-10-08T05:01:15;21.20;;;6.68;;
24859;SDS011;12936;52.006;4.350;2023-10-08T05:03:45;17.42;;;6.32;;
24859;SDS011;12936;52.006;4.350;2023-10-08T05:06:51;21.23;;;7.05;;
24859;SDS011;12936;52.006;4.350;2023-10-08T05:09:27;18.83;;;6.75;;
24859;SDS011;12936;52.006;4.350;2023-10-08T05:12:12;19.65;;;6.35;;
24859;SDS011;12936;52.006;4.350;2023-10-08T05:14:56;23.13;;;6.35;;
24859;SDS011;12936;52.006;4.350;2023-10-08T05:17:49;19.95;;;6.60;;
24859;SDS011;12936;52.006;4.350;2023-10-08T05:20:39;23.83;;;7.07;;
24859;SDS011;12936;52.006;4.350;2023-10-08T05:23:11;20.30;;;7.20;;
24859;SDS011;12936;52.006;4.350;2023-10-08T05:26:19;20.67;;;7.03;;
24859;SDS011;12936;52.006;4.350;2023-10-08T05:28:57;19.27;;;6.28;;
24859;SDS011;12936;52.006;4.350;2023-10-08T05:31:49;22.48;;;6.57;;
24859;SDS011;12936;52.006;4.350;2023-10-08T05:34:39;18.98;;;6.47;;
24859;SDS011;12936;52.006;4.350;2023-10-08T05:37:22;18.50;;;6.53;;
24859;SDS011;12936;52.006;4.350;2023-10-08T05:40:04;16.80;;;6.32;;
24859;SDS011;12936;52.006;4.350;2023-10-08T05:42:47;19.38;;;6.32;;
24859;SDS011;12936;52.006;4.350;2023-10-08T05:45:27;17.35;;;6.25;;
24859;SDS011;12936;52.006;4.350;2023-10-08T05:48:01;17.67;;;6.47;;
24859;SDS011;12936;52.006;4.350;2023-10-08T05:50:41;20.67;;;6.80;;
24859;SDS011;12936;52.006;4.350;2023-10-08T05:53:39;19.95;;;6.60;;
24859;SDS011;12936;52.006;4.350;2023-10-08T05:56:10;17.75;;;6.90;;
24859;SDS011;12936;52.006;4.350;2023-10-08T05:58:55;22.00;;;6.57;;
24859;SDS011;12936;52.006;4.350;2023-10-08T06:01:41;17.02;;;6.55;;
24859;SDS011;12936;52.006;4.350;2023-10-08T06:04:12;23.30;;;7.05;;
24859;SDS011;12936;52.006;4.350;2023-10-08T06:07:10;21.15;;;7.55;;
24859;SDS011;12936;52.006;4.350;2023-10-08T06:09:59;20.67;;;7.97;;
24859;SDS011;12936;52.006;4.350;2023-10-08T06:12:29;30.98;;;8.95;;
24859;SDS011;12936;52.006;4.350;2023-10-08T06:15:16;29.73;;;9.07;;
24859;SDS011;12936;52.006;4.350;2023-10-08T06:17:53;30.25;;;8.60;;
24859;SDS011;12936;52.006;4.350;2023-10-08T06:20:33;28.00;;;8.00;;
24859;SDS011;12936;52.006;4.350;2023-10-08T06:23:03;40.25;;;7.45;;
24859;SDS011;12936;52.006;4.350;2023-10-08T06:25:34;39.75;;;8.00;;
24859;SDS011;12936;52.006;4.350;2023-10-08T06:28:12;37.60;;;7.78;;
24859;SDS011;12936;52.006;4.350;2023-10-08T06:30:43;38.53;;;7.65;;
24859;SDS011;12936;52.006;4.350;2023-10-08T06:33:12;33.65;;;6.95;;
24859;SDS011;12936;52.006;4.350;2023-10-08T06:35:42;45.20;;;8.57;;
24859;SDS011;12936;52.006;4.350;2023-10-08T06:38:20;31.38;;;7.00;;
24859;SDS011;12936;52.006;4.350;2023-10-08T06:40:50;36.08;;;7.55;;
24859;SDS011;12936;52.006;4.350;2023-10-08T06:43:19;36.22;;;7.90;;
24859;SDS011;12936;52.006;4.350;2023-10-08T06:45:51;27.45;;;8.02;;
24859;SDS011;12936;52.006;4.350;2023-10-08T06:48:22;27.38;;;6.22;;
24859;SDS011;12936;52.006;4.350;2023-10-08T06:50:51;31.30;;;6.88;;
24859;SDS011;12936;52.006;4.350;2023-10-08T06:53:25;18.77;;;5.97;;
24859;SDS011;12936;52.006;4.350;2023-10-08T06:55:56;18.98;;;5.50;;
24859;SDS011;12936;52.006;4.350;2023-10-08T06:58:24;17.13;;;4.65;;
24859;SDS011;12936;52.006;4.350;2023-10-08T07:00:53;18.30;;;5.00;;
24859;SDS011;12936;52.006;4.350;2023-10-08T07:03:21;15.57;;;4.60;;
24859;SDS011;12936;52.006;4.350;2023-10-08T07:05:51;18.42;;;4.93;;
24859;SDS011;12936;52.006;4.350;2023-10-08T07:08:28;14.55;;;4.80;;
24859;SDS011;12936;52.006;4.350;2023-10-08T07:10:59;12.43;;;4.95;;
24859;SDS011;12936;52.006;4.350;2023-10-08T07:13:33;25.00;;;5.50;;
24859;SDS011;12936;52.006;4.350;2023-10-08T07:16:03;12.20;;;5.53;;
24859;SDS011;12936;52.006;4.350;2023-10-08T07:18:37;17.98;;;6.00;;
24859;SDS011;12936;52.006;4.350;2023-10-08T07:21:10;15.55;;;5.90;;
24859;SDS011;12936;52.006;4.350;2023-10-08T07:23:40;16.33;;;5.63;;
24859;SDS011;12936;52.006;4.350;2023-10-08T07:26:24;18.92;;;6.38;;
24859;SDS011;12936;52.006;4.350;2023-10-08T07:29:03;16.52;;;6.50;;
24859;SDS011;12936;52.006;4.350;2023-10-08T07:31:35;22.70;;;6.80;;
24859;SDS011;12936;52.006;4.350;2023-10-08T07:34:07;22.25;;;7.78;;
24859;SDS011;12936;52.006;4.350;2023-10-08T07:36:45;22.40;;;8.25;;
24859;SDS011;12936;52.006;4.350;2023-10-08T07:39:17;22.77;;;7.68;;
24859;SDS011;12936;52.006;4.350;2023-10-08T07:42:00;29.38;;;8.63;;
24859;SDS011;12936;52.006;4.350;2023-10-08T07:44:32;25.92;;;8.52;;
24859;SDS011;12936;52.006;4.350;2023-10-08T07:47:02;28.08;;;8.43;;
24859;SDS011;12936;52.006;4.350;2023-10-08T07:49:36;22.35;;;8.13;;
24859;SDS011;12936;52.006;4.350;2023-10-08T07:52:05;27.40;;;7.57;;
24859;SDS011;12936;52.006;4.350;2023-10-08T07:54:35;24.30;;;7.35;;
24859;SDS011;12936;52.006;4.350;2023-10-08T07:57:05;23.15;;;7.63;;
24859;SDS011;12936;52.006;4.350;2023-10-08T07:59:38;21.58;;;6.60;;
24859;SDS011;12936;52.006;4.350;2023-10-08T08:02:08;17.83;;;6.80;;
24859;SDS011;12936;52.006;4.350;2023-10-08T08:04:38;16.45;;;6.22;;
24859;SDS011;12936;52.006;4.350;2023-10-08T08:07:07;23.90;;;6.72;;
24859;SDS011;12936;52.006;4.350;2023-10-08T08:09:44;19.85;;;6.72;;
24859;SDS011;12936;52.006;4.350;2023-10-08T08:12:18;22.15;;;6.28;;
24859;SDS011;12936;52.006;4.350;2023-10-08T08:14:49;20.27;;;6.32;;
24859;SDS011;12936;52.006;4.350;2023-10-08T08:17:18;22.30;;;6.03;;
24859;SDS011;12936;52.006;4.350;2023-10-08T08:19:50;17.27;;;5.43;;
24859;SDS011;12936;52.006;4.350;2023-10-08T08:22:19;17.35;;;5.50;;
24859;SDS011;12936;52.006;4.350;2023-10-08T08:24:51;16.42;;;6.25;;
24859;SDS011;12936;52.006;4.350;2023-10-08T08:27:24;17.73;;;5.65;;
24859;SDS011;12936;52.006;4.350;2023-10-08T08:29:59;18.45;;;5.50;;
24859;SDS011;12936;52.006;4.350;2023-10-08T08:32:36;14.43;;;5.78;;
24859;SDS011;12936;52.006;4.350;2023-10-08T08:35:06;17.35;;;5.60;;
24859;SDS011;12936;52.006;4.350;2023-10-08T08:37:35;23.92;;;5.30;;
24859;SDS011;12936;52.006;4.350;2023-10-08T08:40:06;20.13;;;4.90;;
24859;SDS011;12936;52.006;4.350;2023-10-08T08:42:36;14.00;;;4.90;;
24859;SDS011;12936;52.006;4.350;2023-10-08T08:45:09;12.93;;;5.05;;
24859;SDS011;12936;52.006;4.350;2023-10-08T08:47:40;13.35;;;5.07;;
24859;SDS011;12936;52.006;4.350;2023-10-08T08:50:08;11.57;;;4.65;;
24859;SDS011;12936;52.006;4.350;2023-10-08T08:52:37;17.58;;;4.40;;
24859;SDS011;12936;52.006;4.350;2023-10-08T08:55:08;13.52;;;5.25;;
24859;SDS011;12936;52.006;4.350;2023-10-08T08:57:41;12.40;;;4.80;;
24859;SDS011;12936;52.006;4.350;2023-10-08T09:00:11;14.77;;;5.45;;
24859;SDS011;12936;52.006;4.350;2023-10-08T09:02:40;12.85;;;4.70;;
24859;SDS011;12936;52.006;4.350;2023-10-08T09:05:14;16.52;;;5.45;;
24859;SDS011;12936;52.006;4.350;2023-10-08T09:07:55;9.88;;;4.45;;
24859;SDS011;12936;52.006;4.350;2023-10-08T09:10:26;11.68;;;4.60;;
24859;SDS011;12936;52.006;4.350;2023-10-08T09:12:55;14.13;;;4.80;;
24859;SDS011;12936;52.006;4.350;2023-10-08T09:15:26;17.10;;;4.88;;
24859;SDS011;12936;52.006;4.350;2023-10-08T09:17:54;11.40;;;4.68;;
24859;SDS011;12936;52.006;4.350;2023-10-08T09:20:27;12.20;;;4.38;;
24859;SDS011;12936;52.006;4.350;2023-10-08T09:23:05;12.32;;;4.65;;
24859;SDS011;12936;52.006;4.350;2023-10-08T09:25:40;13.75;;;4.93;;
24859;SDS011;12936;52.006;4.350;2023-10-08T09:28:10;19.77;;;6.00;;
24859;SDS011;12936;52.006;4.350;2023-10-08T09:30:40;13.43;;;6.18;;
24859;SDS011;12936;52.006;4.350;2023-10-08T09:33:12;19.98;;;6.45;;
24859;SDS011;12936;52.006;4.350;2023-10-08T09:35:41;20.77;;;6.28;;
24859;SDS011;12936;52.006;4.350;2023-10-08T09:38:10;17.30;;;5.85;;
24859;SDS011;12936;52.006;4.350;2023-10-08T09:40:40;22.67;;;6.95;;
24859;SDS011;12936;52.006;4.350;2023-10-08T09:43:10;17.13;;;7.38;;
24859;SDS011;12936;52.006;4.350;2023-10-08T09:45:40;21.95;;;7.45;;
24859;SDS011;12936;52.006;4.350;2023-10-08T09:48:10;23.33;;;7.00;;
24859;SDS011;12936;52.006;4.350;2023-10-08T09:50:40;24.40;;;7.18;;
24859;SDS011;12936;52.006;4.350;2023-10-08T09:53:09;28.17;;;7.47;;
24859;SDS011;12936;52.006;4.350;2023-10-08T09:55:45;19.40;;;7.20;;
24859;SDS011;12936;52.006;4.350;2023-10-08T09:58:16;21.63;;;7.30;;
24859;SDS011;12936;52.006;4.350;2023-10-08T10:00:45;16.70;;;6.40;;
24859;SDS011;12936;52.006;4.350;2023-10-08T10:03:15;17.73;;;7.10;;
24859;SDS011;12936;52.006;4.350;2023-10-08T10:05:45;26.45;;;7.70;;
24859;SDS011;12936;52.006;4.350;2023-10-08T10:08:16;19.92;;;7.40;;
24859;SDS011;12936;52.006;4.350;2023-10-08T10:10:48;21.05;;;7.07;;
24859;SDS011;12936;52.006;4.350;2023-10-08T10:13:27;27.17;;;7.82;;
24859;SDS011;12936;52.006;4.350;2023-10-08T10:15:56;19.23;;;6.70;;
24859;SDS011;12936;52.006;4.350;2023-10-08T10:18:29;24.27;;;7.38;;
24859;SDS011;12936;52.006;4.350;2023-10-08T10:20:58;24.13;;;7.25;;
24859;SDS011;12936;52.006;4.350;2023-10-08T10:23:34;18.38;;;6.15;;
24859;SDS011;12936;52.006;4.350;2023-10-08T10:26:20;20.27;;;6.07;;
24859;SDS011;12936;52.006;4.350;2023-10-08T10:31:52;22.25;;;6.35;;
24859;SDS011;12936;52.006;4.350;2023-10-08T10:34:23;17.75;;;6.38;;
24859;SDS011;12936;52.006;4.350;2023-10-08T10:36:54;21.98;;;6.93;;
24859;SDS011;12936;52.006;4.350;2023-10-08T10:39:25;19.65;;;6.25;;
24859;SDS011;12936;52.006;4.350;2023-10-08T10:41:56;18.77;;;6.15;;
24859;SDS011;12936;52.006;4.350;2023-10-08T10:44:28;23.25;;;6.50;;
24859;SDS011;12936;52.006;4.350;2023-10-08T10:46:57;16.83;;;5.95;;
24859;SDS011;12936;52.006;4.350;2023-10-08T10:49:58;20.30;;;6.00;;
24859;SDS011;12936;52.006;4.350;2023-10-08T10:52:52;21.98;;;6.28;;
24859;SDS011;12936;52.006;4.350;2023-10-08T10:55:20;17.20;;;5.68;;
24859;SDS011;12936;52.006;4.350;2023-10-08T10:57:52;24.38;;;6.10;;
24859;SDS011;12936;52.006;4.350;2023-10-08T11:00:23;16.13;;;5.38;;
24859;SDS011;12936;52.006;4.350;2023-10-08T11:03:09;20.67;;;5.97;;
24859;SDS011;12936;52.006;4.350;2023-10-08T11:05:45;18.50;;;5.13;;
24859;SDS011;12936;52.006;4.350;2023-10-08T11:08:18;20.98;;;5.75;;
24859;SDS011;12936;52.006;4.350;2023-10-08T11:10:49;18.38;;;6.25;;
24859;SDS011;12936;52.006;4.350;2023-10-08T11:13:21;19.33;;;6.57;;
24859;SDS011;12936;52.006;4.350;2023-10-08T11:15:55;18.17;;;5.88;;
24859;SDS011;12936;52.006;4.350;2023-10-08T11:18:26;16.27;;;6.85;;
24859;SDS011;12936;52.006;4.350;2023-10-08T11:21:04;20.45;;;6.45;;
24859;SDS011;12936;52.006;4.350;2023-10-08T11:23:41;13.75;;;7.15;;
24859;SDS011;12936;52.006;4.350;2023-10-08T11:26:13;18.50;;;7.00;;
24859;SDS011;12936;52.006;4.350;2023-10-08T11:28:44;21.70;;;6.45;;
24859;SDS011;12936;52.006;4.350;2023-10-08T11:31:14;19.85;;;6.05;;
24859;SDS011;12936;52.006;4.350;2023-10-08T11:33:46;16.88;;;5.82;;
24859;SDS011;12936;52.006;4.350;2023-10-08T11:36:21;21.33;;;6.43;;
24859;SDS011;12936;52.006;4.350;2023-10-08T11:38:54;18.50;;;6.25;;
24859;SDS011;12936;52.006;4.350;2023-10-08T11:41:27;21.02;;;7.18;;
24859;SDS011;12936;52.006;4.350;2023-10-08T11:44:11;19.70;;;7.25;;
24859;SDS011;12936;52.006;4.350;2023-10-08T11:46:40;23.35;;;7.57;;
24859;SDS011;12936;52.006;4.350;2023-10-08T11:49:11;20.30;;;7.72;;
24859;SDS011;12936;52.006;4.350;2023-10-08T11:51:44;20.50;;;8.10;;
24859;SDS011;12936;52.006;4.350;2023-10-08T11:54:13;18.05;;;6.88;;
24859;SDS011;12936;52.006;4.350;2023-10-08T11:56:42;22.65;;;7.05;;
24859;SDS011;12936;52.006;4.350;2023-10-08T11:59:12;20.67;;;7.45;;
24859;SDS011;12936;52.006;4.350;2023-10-08T12:01:40;21.52;;;7.05;;
24859;SDS011;12936;52.006;4.350;2023-10-08T12:04:09;21.60;;;7.88;;
24859;SDS011;12936;52.006;4.350;2023-10-08T12:06:40;21.48;;;6.57;;
24859;SDS011;12936;52.006;4.350;2023-10-08T12:09:13;18.75;;;6.70;;
24859;SDS011;12936;52.006;4.350;2023-10-08T12:11:41;20.48;;;7.40;;
24859;SDS011;12936;52.006;4.350;2023-10-08T12:14:11;20.83;;;7.22;;
24859;SDS011;12936;52.006;4.350;2023-10-08T12:16:41;22.70;;;7.25;;
24859;SDS011;12936;52.006;4.350;2023-10-08T12:19:12;21.83;;;8.55;;
24859;SDS011;12936;52.006;4.350;2023-10-08T12:21:43;24.15;;;7.65;;
24859;SDS011;12936;52.006;4.350;2023-10-08T12:24:13;23.65;;;8.57;;
24859;SDS011;12936;52.006;4.350;2023-10-08T12:26:41;22.58;;;9.30;;
24859;SDS011;12936;52.006;4.350;2023-10-08T12:29:14;20.48;;;8.88;;
24859;SDS011;12936;52.006;4.350;2023-10-08T12:31:43;22.10;;;8.18;;
24859;SDS011;12936;52.006;4.350;2023-10-08T12:34:14;24.98;;;9.02;;
24859;SDS011;12936;52.006;4.350;2023-10-08T12:36:43;22.70;;;9.77;;
24859;SDS011;12936;52.006;4.350;2023-10-08T12:39:12;24.25;;;11.18;;
24859;SDS011;12936;52.006;4.350;2023-10-08T12:41:42;26.02;;;10.57;;
24859;SDS011;12936;52.006;4.350;2023-10-08T12:44:11;22.42;;;10.52;;
24859;SDS011;12936;52.006;4.350;2023-10-08T12:46:43;30.13;;;11.38;;
24859;SDS011;12936;52.006;4.350;2023-10-08T12:49:15;28.33;;;10.80;;
24859;SDS011;12936;52.006;4.350;2023-10-08T12:51:43;24.60;;;10.02;;
24859;SDS011;12936;52.006;4.350;2023-10-08T12:54:11;19.33;;;11.43;;
24859;SDS011;12936;52.006;4.350;2023-10-08T12:56:48;28.17;;;13.40;;
24859;SDS011;12936;52.006;4.350;2023-10-08T12:59:16;25.40;;;13.25;;
24859;SDS011;12936;52.006;4.350;2023-10-08T13:01:49;26.75;;;12.73;;
24859;SDS011;12936;52.006;4.350;2023-10-08T13:04:21;34.42;;;15.93;;
24859;SDS011;12936;52.006;4.350;2023-10-08T13:06:53;27.50;;;14.43;;
24859;SDS011;12936;52.006;4.350;2023-10-08T13:09:23;33.05;;;14.02;;
24859;SDS011;12936;52.006;4.350;2023-10-08T13:11:53;29.35;;;13.65;;
24859;SDS011;12936;52.006;4.350;2023-10-08T13:14:21;26.05;;;13.60;;
24859;SDS011;12936;52.006;4.350;2023-10-08T13:16:51;26.13;;;13.25;;
24859;SDS011;12936;52.006;4.350;2023-10-08T13:19:20;32.42;;;13.30;;
24859;SDS011;12936;52.006;4.350;2023-10-08T13:21:50;23.75;;;11.75;;
24859;SDS011;12936;52.006;4.350;2023-10-08T13:24:19;24.83;;;12.55;;
24859;SDS011;12936;52.006;4.350;2023-10-08T13:26:50;31.60;;;13.02;;
24859;SDS011;12936;52.006;4.350;2023-10-08T13:29:19;29.25;;;12.65;;
24859;SDS011;12936;52.006;4.350;2023-10-08T13:31:47;36.42;;;12.35;;
24859;SDS011;12936;52.006;4.350;2023-10-08T13:34:16;28.15;;;12.40;;
24859;SDS011;12936;52.006;4.350;2023-10-08T13:36:44;26.48;;;12.40;;
24859;SDS011;12936;52.006;4.350;2023-10-08T13:39:14;28.33;;;12.27;;
24859;SDS011;12936;52.006;4.350;2023-10-08T13:41:45;27.85;;;12.35;;
24859;SDS011;12936;52.006;4.350;2023-10-08T13:44:15;23.70;;;11.75;;
24859;SDS011;12936;52.006;4.350;2023-10-08T13:46:44;28.25;;;12.65;;
24859;SDS011;12936;52.006;4.350;2023-10-08T13:49:17;26.98;;;13.35;;
24859;SDS011;12936;52.006;4.350;2023-10-08T13:51:45;35.08;;;13.63;;
24859;SDS011;12936;52.006;4.350;2023-10-08T13:54:22;33.47;;;14.73;;
24859;SDS011;12936;52.006;4.350;2023-10-08T13:56:55;33.08;;;14.02;;
24859;SDS011;12936;52.006;4.350;2023-10-08T13:59:25;29.10;;;14.18;;
24859;SDS011;12936;52.006;4.350;2023-10-08T14:01:58;36.30;;;14.70;;
24859;SDS011;12936;52.006;4.350;2023-10-08T14:04:30;30.88;;;14.40;;
24859;SDS011;12936;52.006;4.350;2023-10-08T14:07:01;30.65;;;14.55;;
24859;SDS011;12936;52.006;4.350;2023-10-08T14:09:30;29.75;;;13.65;;
24859;SDS011;12936;52.006;4.350;2023-10-08T14:12:03;32.47;;;15.30;;
24859;SDS011;12936;52.006;4.350;2023-10-08T14:14:33;31.73;;;14.68;;
24859;SDS011;12936;52.006;4.350;2023-10-08T14:17:01;35.17;;;14.10;;
24859;SDS011;12936;52.006;4.350;2023-10-08T14:19:36;24.77;;;14.13;;
24859;SDS011;12936;52.006;4.350;2023-10-08T14:22:12;29.33;;;13.70;;
24859;SDS011;12936;52.006;4.350;2023-10-08T14:24:42;28.55;;;13.32;;
24859;SDS011;12936;52.006;4.350;2023-10-08T14:27:13;29.73;;;14.45;;
24859;SDS011;12936;52.006;4.350;2023-10-08T14:29:43;36.08;;;14.73;;
24859;SDS011;12936;52.006;4.350;2023-10-08T14:32:13;35.03;;;15.55;;
24859;SDS011;12936;52.006;4.350;2023-10-08T14:34:43;28.33;;;13.70;;
24859;SDS011;12936;52.006;4.350;2023-10-08T14:37:43;29.45;;;14.48;;
24859;SDS011;12936;52.006;4.350;2023-10-08T14:40:29;32.47;;;14.57;;
24859;SDS011;12936;52.006;4.350;2023-10-08T14:43:14;31.98;;;15.35;;
24859;SDS011;12936;52.006;4.350;2023-10-08T14:45:46;32.13;;;14.80;;
24859;SDS011;12936;52.006;4.350;2023-10-08T14:48:15;32.28;;;15.70;;
24859;SDS011;12936;52.006;4.350;2023-10-08T14:50:48;27.45;;;14.38;;
24859;SDS011;12936;52.006;4.350;2023-10-08T14:53:16;29.65;;;15.05;;
24859;SDS011;12936;52.006;4.350;2023-10-08T14:55:44;32.78;;;15.10;;
24859;SDS011;12936;52.006;4.350;2023-10-08T14:58:13;30.60;;;14.25;;
24859;SDS011;12936;52.006;4.350;2023-10-08T15:00:42;29.35;;;14.45;;
24859;SDS011;12936;52.006;4.350;2023-10-08T15:03:11;31.98;;;14.30;;
24859;SDS011;12936;52.006;4.350;2023-10-08T15:05:42;30.95;;;14.35;;
24859;SDS011;12936;52.006;4.350;2023-10-08T15:08:12;32.58;;;14.90;;
24859;SDS011;12936;52.006;4.350;2023-10-08T15:10:41;31.02;;;13.70;;